Flight Track Log - Related Links

Times and Time Zones

All times are in EDT time to prevent confusion due to time zone crossing. See the PDT4226 flight status page for this flight to view local times or setup timezone preferences in your user account.


Time Position Orientation Groundspeed Altitude Reporting Facility
EDT Latitude Longitude Course Direction KTS MPH feet Rate Location/Type
Sun 02:00:00 PM 42.0306 -75.9214 180° South  Level Estimated
Sun 02:01:00 PM 41.9696 -75.9240 182° South  Level FlightAware Approximate
Sun 02:02:00 PM 41.9104 -75.9041 154° Southeast  Level Estimated
Sun 02:03:00 PM 41.8513 -75.8843 160° South  Level Estimated
Sun 02:04:00 PM 41.7921 -75.8644 159° South  Level Estimated
Sun 02:05:00 PM 41.7319 -75.8511 171° South  Level FlightAware Approximate
Sun 02:06:00 PM 41.6727 -75.8311 153° Southeast  Level Estimated
Sun 02:07:00 PM 41.6136 -75.8112 161° South  Level Estimated
Sun 02:08:00 PM 41.5548 -75.7894 165° South  Level FlightAware Approximate
Sun 02:09:00 PM 41.4960 -75.7677 165° South  Level FlightAware Approximate
Sun 02:10:00 PM 41.4368 -75.7480 162° South  Level Estimated
Sun 02:11:00 PM 41.3786 -75.7237 163° South  Level FlightAware Approximate
Sun 02:12:00 PM 41.3204 -75.6994 163° South  Level FlightAware Approximate
Sun 02:13:00 PM 41.2621 -75.6752 163° South  Level FlightAware Approximate
Sun 02:14:00 PM 41.2039 -75.6510 163° South  Level FlightAware Approximate
Sun 02:15:00 PM 41.1445 -75.6324 159° South  Level Estimated
Sun 02:16:00 PM 41.0852 -75.6137 163° South  Level Estimated
Sun 02:17:00 PM 41.0274 -75.5879 161° South  Level FlightAware Approximate
Sun 02:18:00 PM 40.9695 -75.5622 161° South  Level FlightAware Approximate
Sun 02:19:00 PM 40.9117 -75.5364 161° South  Level FlightAware Approximate
Sun 02:20:00 PM 40.8521 -75.5192 190° South  Level Estimated
Sun 02:21:00 PM 40.7911 -75.5159 178° South  Level FlightAware Approximate
Sun 02:22:00 PM 40.7302 -75.5126 178° South  Level FlightAware Approximate
Sun 02:23:00 PM 40.6709 -75.4936 187° South  Level Estimated
Sun 02:24:00 PM 40.6100 -75.4988 184° South  Level FlightAware Approximate
Sun 02:24:27 PM 40.6500 -75.5833 143° Southeast 262 302 6,200  Level Philadelphia TRACON
Sun 02:25:00 PM 40.5511 -75.4780 190° South  Level Estimated
Sun 02:26:00 PM 40.4911 -75.4924 190° South  Level FlightAware Approximate
Sun 02:26:10 PM 40.5333 -75.5667 174° South 256 295 5,000  Level Philadelphia TRACON
Sun 02:27:00 PM 40.4311 -75.5068 190° South  Level FlightAware Approximate
Sun 02:27:16 PM 40.4667 -75.5667 180° South 235 270 5,000  Level Philadelphia TRACON
Sun 02:28:00 PM 40.3738 -75.4793 143° Southeast  Level Estimated
Sun 02:28:10 PM 40.4000 -75.5667 180° South 232 267 5,000  Level Philadelphia TRACON
Sun 02:29:00 PM 40.3165 -75.4518 143° Southeast  Level Estimated
Sun 02:29:10 PM 40.3333 -75.5500 169° South 230 265 5,000  Level Philadelphia TRACON
Sun 02:30:10 PM 40.2833 -75.5333 166° South 231 266 5,000  Level Philadelphia TRACON
Sun 02:31:10 PM 40.2167 -75.5167 169° South 228 262 5,000 -53 Level Philadelphia TRACON
Sun 02:32:04 PM 40.1667 -75.5000 166° South 230 265 4,900 -474 Descending Philadelphia TRACON
Sun 02:33:04 PM 40.1000 -75.4667 159° South 245 282 4,100 -409 Descending Philadelphia TRACON
Sun 02:34:16 PM 40.0333 -75.4167 150° Southeast 227 261 4,000 -45 Descending Philadelphia TRACON
Sun 02:35:16 PM 39.9667 -75.3833 159° South 219 252 4,000  Level Philadelphia TRACON
Sun 02:36:16 PM 39.9167 -75.3667 166° South 204 235 4,000  Level Philadelphia TRACON
Sun 02:37:04 PM 39.8833 -75.3500 159° South 206 237 4,000 -50 Level Philadelphia TRACON
Sun 02:38:16 PM 39.8000 -75.3167 163° South 206 237 3,900 -435 Descending Philadelphia TRACON
Sun 02:39:22 PM 39.7500 -75.3000 166° South 193 222 3,000 -611 Descending Philadelphia TRACON
Sun 02:40:04 PM 39.7167 -75.2833 159° South 196 226 2,800 -678 Descending Philadelphia TRACON
Sun 02:41:17 PM 39.7333 -75.2167 72° East 174 200 1,700 -567 Descending Philadelphia TRACON
Sun 02:42:11 PM 39.7833 -75.2167 360° North 169 194 1,600 -278 Descending Philadelphia TRACON
Sun 02:43:05 PM 39.8167 -75.2000 21° North 139 160 1,200 -526 Descending Philadelphia TRACON
Sun 02:44:05 PM 39.8500 -75.2167 339° North 124 143 600 -600 Descending Philadelphia TRACON

Login

Don't have an account? Register now (free) for customized features, flight alerts, and more!